createdAt,value
2022-12-17T00:09:07.000Z,103.90
2022-12-17T00:19:07.000Z,116.10
2022-12-17T00:29:07.000Z,108.90
2022-12-17T00:39:07.000Z,111.20
2022-12-17T00:49:07.000Z,106.30
2022-12-17T00:59:07.000Z,97.20
2022-12-17T01:09:06.000Z,105.80
2022-12-17T01:19:06.000Z,104.00
2022-12-17T01:29:06.000Z,104.40
2022-12-17T01:39:06.000Z,106.00
2022-12-17T01:49:06.000Z,108.80
2022-12-17T01:59:06.000Z,102.70
2022-12-17T02:09:06.000Z,102.10
2022-12-17T02:19:06.000Z,99.40
2022-12-17T02:29:06.000Z,110.50
2022-12-17T02:39:06.000Z,102.10
2022-12-17T02:49:06.000Z,101.90
2022-12-17T02:59:05.000Z,99.30
2022-12-17T03:09:05.000Z,99.30
2022-12-17T03:19:05.000Z,88.40
2022-12-17T03:29:05.000Z,92.40
2022-12-17T03:39:05.000Z,87.00
2022-12-17T03:49:05.000Z,97.50
2022-12-17T03:59:05.000Z,107.10
2022-12-17T04:09:05.000Z,89.60
2022-12-17T04:19:05.000Z,112.60
2022-12-17T04:29:05.000Z,315.10
2022-12-17T04:39:05.000Z,458.90
2022-12-17T04:49:05.000Z,335.20
2022-12-17T04:59:04.000Z,486.80
2022-12-17T05:09:04.000Z,334.30
2022-12-17T05:19:04.000Z,173.00
2022-12-17T05:29:04.000Z,154.80
2022-12-17T05:39:04.000Z,122.20
2022-12-17T05:49:04.000Z,120.80
2022-12-17T05:59:04.000Z,136.70
2022-12-17T06:09:04.000Z,132.10
2022-12-17T06:19:04.000Z,126.70
2022-12-17T06:29:04.000Z,203.80
2022-12-17T06:39:04.000Z,159.10
2022-12-17T06:49:03.000Z,168.10
2022-12-17T06:59:03.000Z,172.40
2022-12-17T07:09:03.000Z,150.00
2022-12-17T07:19:03.000Z,194.20
2022-12-17T07:29:03.000Z,204.30
2022-12-17T07:39:03.000Z,155.40
2022-12-17T07:49:03.000Z,203.10
2022-12-17T07:59:03.000Z,247.90
2022-12-17T08:09:03.000Z,411.20
2022-12-17T08:19:03.000Z,404.00
2022-12-17T08:29:03.000Z,432.50
2022-12-17T08:39:03.000Z,438.50
2022-12-17T08:49:02.000Z,395.70
2022-12-17T08:59:02.000Z,339.20
2022-12-17T09:09:02.000Z,483.30
2022-12-17T09:19:02.000Z,272.40
2022-12-17T09:29:02.000Z,409.80
2022-12-17T09:39:02.000Z,544.30
2022-12-17T09:49:02.000Z,455.80
2022-12-17T09:59:02.000Z,300.50
2022-12-17T10:09:02.000Z,289.30
2022-12-17T10:19:02.000Z,265.20
2022-12-17T10:29:02.000Z,280.70
2022-12-17T10:39:01.000Z,293.00
2022-12-17T10:49:01.000Z,286.30
2022-12-17T10:59:01.000Z,206.90
2022-12-17T11:09:01.000Z,199.90
2022-12-17T11:19:01.000Z,232.80
2022-12-17T11:29:01.000Z,315.30
2022-12-17T11:39:01.000Z,343.10
2022-12-17T11:49:01.000Z,267.00
2022-12-17T11:59:01.000Z,223.20
2022-12-17T12:09:01.000Z,164.20
2022-12-17T12:19:01.000Z,135.00
2022-12-17T12:29:00.000Z,139.00
2022-12-17T12:39:00.000Z,133.70
2022-12-17T12:49:00.000Z,153.20
2022-12-17T12:59:00.000Z,133.60
2022-12-17T13:09:00.000Z,114.20
2022-12-17T13:19:00.000Z,125.10
2022-12-17T13:29:00.000Z,135.00
2022-12-17T13:39:00.000Z,133.10
2022-12-17T13:49:00.000Z,146.20
2022-12-17T13:59:00.000Z,173.20
2022-12-17T14:09:00.000Z,194.70
2022-12-17T14:18:59.000Z,323.60
2022-12-17T14:28:59.000Z,173.80
2022-12-17T14:38:59.000Z,164.20
2022-12-17T14:48:59.000Z,177.60
2022-12-17T14:58:59.000Z,164.80
2022-12-17T15:08:59.000Z,192.50
2022-12-17T15:18:59.000Z,219.90
2022-12-17T15:28:59.000Z,393.20
2022-12-17T15:38:59.000Z,397.90
2022-12-17T15:48:59.000Z,345.70
2022-12-17T15:58:59.000Z,473.80
2022-12-17T16:08:58.000Z,371.80
2022-12-17T16:18:58.000Z,931.10
2022-12-17T16:28:58.000Z,344.60
2022-12-17T16:38:58.000Z,331.50
2022-12-17T16:48:58.000Z,565.70
2022-12-17T16:58:58.000Z,586.40
2022-12-17T17:08:58.000Z,415.50
2022-12-17T17:18:58.000Z,1326.40
2022-12-17T17:28:58.000Z,769.40
2022-12-17T17:38:58.000Z,412.60
2022-12-17T17:48:58.000Z,714.70
2022-12-17T17:58:57.000Z,657.40
2022-12-17T18:08:57.000Z,454.20
2022-12-17T18:18:57.000Z,395.90
2022-12-17T18:28:57.000Z,605.20
2022-12-17T18:38:57.000Z,790.10
2022-12-17T18:48:57.000Z,360.30
2022-12-17T18:58:57.000Z,498.30
2022-12-17T19:08:57.000Z,731.30
2022-12-17T19:18:57.000Z,301.90
2022-12-17T19:28:57.000Z,288.60
2022-12-17T19:38:57.000Z,454.20
2022-12-17T19:48:57.000Z,294.70
2022-12-17T19:58:56.000Z,226.40
2022-12-17T20:08:56.000Z,184.80
2022-12-17T20:18:56.000Z,360.80
2022-12-17T20:28:56.000Z,250.90
2022-12-17T20:38:56.000Z,320.50
2022-12-17T20:48:56.000Z,186.00
2022-12-17T20:58:56.000Z,173.10
2022-12-17T21:08:56.000Z,171.70
2022-12-17T21:18:56.000Z,151.00
2022-12-17T21:28:56.000Z,122.80
2022-12-17T21:28:56.000Z,122.80
2022-12-17T21:38:56.000Z,154.90
2022-12-17T21:48:55.000Z,163.70
2022-12-17T21:58:55.000Z,179.60
2022-12-17T21:58:55.000Z,179.60
2022-12-17T22:08:55.000Z,104.20
2022-12-17T22:18:55.000Z,157.90
2022-12-17T22:28:55.000Z,127.80
2022-12-17T22:28:55.000Z,127.80
2022-12-17T22:54:12.000Z,77.60
2022-12-17T22:54:12.000Z,90.30
2022-12-17T23:04:12.000Z,89.50
2022-12-17T23:14:12.000Z,100.30
2022-12-17T23:24:12.000Z,80.30
2022-12-17T23:34:12.000Z,85.70
2022-12-17T23:44:12.000Z,92.50
2022-12-17T23:54:12.000Z,78.10
